createdAt,value
2022-12-11T00:04:55.590Z,38.00
2022-12-11T00:07:25.631Z,40.30
2022-12-11T00:16:58.632Z,36.28
2022-12-11T00:19:25.411Z,37.85
2022-12-11T00:21:52.153Z,33.58
2022-12-11T00:25:17.160Z,38.83
2022-12-11T00:27:56.257Z,29.90
2022-12-11T00:30:24.438Z,35.38
2022-12-11T00:32:54.378Z,37.53
2022-12-11T00:35:22.333Z,34.75
2022-12-11T00:37:49.073Z,32.33
2022-12-11T00:40:15.832Z,34.47
2022-12-11T00:42:42.649Z,38.83
2022-12-11T00:45:12.796Z,32.10
2022-12-11T00:47:39.695Z,32.85
2022-12-11T00:50:07.117Z,33.22
2022-12-11T00:52:35.077Z,28.27
2022-12-11T00:55:08.728Z,33.13
2022-12-11T00:58:04.594Z,35.25
2022-12-11T01:00:31.630Z,32.85
2022-12-11T01:02:58.701Z,28.15
2022-12-11T01:06:02.705Z,33.53
2022-12-11T01:08:32.732Z,31.70
2022-12-11T01:11:12.048Z,22.17
2022-12-11T01:13:39.932Z,30.35
2022-12-11T01:16:12.842Z,27.27
2022-12-11T01:18:39.850Z,31.48
2022-12-11T01:21:13.774Z,26.85
2022-12-11T01:23:40.893Z,27.50
2022-12-11T01:26:25.588Z,30.05
2022-12-11T01:28:55.517Z,27.85
2022-12-11T01:31:22.504Z,29.08
2022-12-11T01:33:49.304Z,30.95
2022-12-11T01:36:56.948Z,30.70
2022-12-11T01:39:23.893Z,26.05
2022-12-11T01:42:01.850Z,26.88
2022-12-11T01:44:40.830Z,27.67
2022-12-11T01:47:41.953Z,26.63
2022-12-11T01:50:08.798Z,25.52
2022-12-11T01:52:35.757Z,22.85
2022-12-11T01:55:02.736Z,24.15
2022-12-11T01:57:30.054Z,26.98
2022-12-11T01:59:59.096Z,27.38
2022-12-11T02:06:03.036Z,28.90
2022-12-11T02:08:30.199Z,27.70
2022-12-11T02:17:32.693Z,27.83
2022-12-11T02:24:19.912Z,29.77
2022-12-11T02:27:27.233Z,30.15
2022-12-11T02:30:02.833Z,30.80
2022-12-11T02:32:35.678Z,29.45
2022-12-11T02:41:59.247Z,34.58
2022-12-11T02:44:30.893Z,28.38
2022-12-11T02:46:58.887Z,30.23
2022-12-11T02:49:28.028Z,27.60
2022-12-11T02:52:41.456Z,25.75
2022-12-11T02:57:43.875Z,31.10
2022-12-11T03:00:12.064Z,22.40
2022-12-11T03:06:23.688Z,31.67
2022-12-11T03:08:55.071Z,34.38
2022-12-11T03:11:30.832Z,32.45
2022-12-11T03:17:12.067Z,32.35
2022-12-11T03:27:18.758Z,33.05
2022-12-11T03:30:07.876Z,35.67
2022-12-11T03:33:13.652Z,32.55
2022-12-11T03:35:49.251Z,22.08
2022-12-11T03:38:24.017Z,36.28
2022-12-11T03:40:55.119Z,30.98
2022-12-11T03:43:23.170Z,32.20
2022-12-11T03:45:52.352Z,24.33
2022-12-11T03:48:24.002Z,23.73
2022-12-11T03:54:29.587Z,27.73
2022-12-11T03:56:59.436Z,27.35
2022-12-11T03:59:26.392Z,28.98
2022-12-11T04:01:53.472Z,25.33
2022-12-11T04:04:20.618Z,32.95
2022-12-11T04:10:16.090Z,26.63
2022-12-11T04:12:46.632Z,30.63
2022-12-11T04:15:15.838Z,29.50
2022-12-11T04:18:01.321Z,23.77
2022-12-11T04:20:50.139Z,19.38
2022-12-11T04:26:29.530Z,25.95
2022-12-11T04:28:56.441Z,23.92
2022-12-11T04:31:23.309Z,24.10
2022-12-11T04:33:50.592Z,21.05
2022-12-11T04:36:17.834Z,18.90
2022-12-11T04:45:40.985Z,24.30
2022-12-11T04:48:07.737Z,18.88
2022-12-11T04:54:11.744Z,21.13
2022-12-11T05:00:11.560Z,22.75
2022-12-11T05:02:44.041Z,22.13
2022-12-11T05:07:44.835Z,23.80
2022-12-11T05:10:17.888Z,18.23
2022-12-11T05:12:44.704Z,21.85
2022-12-11T05:18:07.147Z,21.85
2022-12-11T05:20:36.708Z,22.42
2022-12-11T05:23:03.702Z,21.85
2022-12-11T05:25:30.406Z,18.77
2022-12-11T05:28:09.177Z,22.25
2022-12-11T05:30:39.075Z,22.17
2022-12-11T05:33:08.815Z,23.48
2022-12-11T05:35:35.634Z,21.52
2022-12-11T05:38:02.635Z,16.40
2022-12-11T05:44:44.535Z,18.77
2022-12-11T05:47:11.380Z,23.70
2022-12-11T05:50:03.753Z,24.95
2022-12-11T05:52:34.914Z,19.38
2022-12-11T05:58:39.968Z,13.80
2022-12-11T06:04:41.048Z,21.92
2022-12-11T06:07:07.950Z,17.95
2022-12-11T06:13:03.507Z,23.55
2022-12-11T06:15:30.555Z,23.73
2022-12-11T06:20:50.276Z,23.95
2022-12-11T06:23:20.186Z,22.55
2022-12-11T06:26:30.787Z,25.05
2022-12-11T06:32:48.456Z,24.15
2022-12-11T06:35:15.330Z,22.00
2022-12-11T06:37:42.079Z,29.55
2022-12-11T06:40:46.139Z,25.35
2022-12-11T06:43:13.103Z,26.58
2022-12-11T06:45:43.011Z,23.10
2022-12-11T06:55:03.342Z,29.05
2022-12-11T06:57:30.063Z,33.10
2022-12-11T06:59:56.864Z,26.65
2022-12-11T07:02:27.273Z,33.67
2022-12-11T07:05:17.124Z,34.45
2022-12-11T07:11:14.471Z,31.13
2022-12-11T07:17:01.560Z,35.42
2022-12-11T07:19:30.143Z,35.42
2022-12-11T07:21:59.674Z,36.90
2022-12-11T07:25:17.306Z,40.08
2022-12-11T07:34:52.094Z,30.42
2022-12-11T07:37:18.956Z,37.28
2022-12-11T07:46:51.909Z,43.05
2022-12-11T07:49:18.933Z,38.45
2022-12-11T07:51:45.849Z,44.60
2022-12-11T07:54:16.653Z,45.33
2022-12-11T07:56:53.184Z,46.63
2022-12-11T07:59:21.301Z,43.05
2022-12-11T08:01:50.788Z,36.50
2022-12-11T08:04:17.554Z,43.25
2022-12-11T08:07:31.467Z,46.35
2022-12-11T08:09:58.260Z,46.15
2022-12-11T08:12:25.008Z,42.67
2022-12-11T08:14:51.769Z,50.47
2022-12-11T08:17:18.500Z,47.97
2022-12-11T08:19:45.321Z,48.03
2022-12-11T08:22:14.169Z,49.28
2022-12-11T08:24:42.925Z,50.00
2022-12-11T08:27:09.708Z,45.72
2022-12-11T08:29:40.105Z,46.10
2022-12-11T08:32:12.124Z,45.03
2022-12-11T08:34:40.533Z,44.05
2022-12-11T08:37:09.329Z,42.92
2022-12-11T08:39:40.211Z,36.33
2022-12-11T08:42:07.916Z,33.35
2022-12-11T08:44:34.693Z,36.92
2022-12-11T08:47:01.383Z,38.90
2022-12-11T08:49:34.041Z,35.03
2022-12-11T08:52:03.173Z,36.85
2022-12-11T08:54:32.806Z,31.67
2022-12-11T08:56:59.813Z,32.33
2022-12-11T08:59:26.758Z,35.95
2022-12-11T09:01:55.739Z,34.60
2022-12-11T09:04:26.841Z,36.50
2022-12-11T09:06:58.675Z,33.67
2022-12-11T09:09:25.563Z,38.95
2022-12-11T09:11:53.190Z,35.92
2022-12-11T09:14:20.201Z,32.20
2022-12-11T09:16:47.098Z,34.92
2022-12-11T09:19:15.408Z,30.65
2022-12-11T09:21:43.342Z,33.20
2022-12-11T09:24:11.410Z,31.13
2022-12-11T09:26:42.066Z,30.88
2022-12-11T09:29:17.771Z,30.92
2022-12-11T09:31:45.519Z,30.63
2022-12-11T09:34:13.456Z,30.58
2022-12-11T09:36:44.442Z,31.05
2022-12-11T09:39:15.246Z,27.05
2022-12-11T09:42:18.311Z,29.63
2022-12-11T09:44:55.174Z,34.95
2022-12-11T09:47:56.176Z,30.77
2022-12-11T09:50:29.552Z,30.60
2022-12-11T09:53:34.291Z,28.33
2022-12-11T09:56:27.054Z,29.70
2022-12-11T09:59:11.939Z,30.60
2022-12-11T10:01:48.588Z,26.70
2022-12-11T10:04:27.238Z,27.65
2022-12-11T10:07:16.470Z,25.85
2022-12-11T10:09:58.373Z,26.83
2022-12-11T10:12:52.303Z,29.17
2022-12-11T10:15:46.524Z,24.70
2022-12-11T10:18:18.218Z,23.90
2022-12-11T10:20:54.173Z,28.13
2022-12-11T10:23:30.190Z,24.15
2022-12-11T10:26:22.142Z,26.60
2022-12-11T10:29:07.073Z,28.10
2022-12-11T10:31:49.157Z,26.60
2022-12-11T10:34:41.527Z,25.17
2022-12-11T10:37:08.398Z,28.42
2022-12-11T10:39:35.269Z,28.00
2022-12-11T10:42:16.579Z,29.50
2022-12-11T10:44:57.858Z,27.10
2022-12-11T10:47:24.683Z,22.58
2022-12-11T10:50:02.642Z,23.10
2022-12-11T10:52:41.252Z,28.73
2022-12-11T10:55:27.617Z,29.98
2022-12-11T10:58:01.857Z,28.52
2022-12-11T11:00:36.166Z,25.40
2022-12-11T11:03:05.347Z,26.92
2022-12-11T11:05:36.503Z,29.85
2022-12-11T11:08:25.643Z,30.38
2022-12-11T11:10:55.056Z,27.75
2022-12-11T11:13:24.626Z,30.63
2022-12-11T11:16:04.341Z,26.75
2022-12-11T11:18:32.199Z,27.05
2022-12-11T11:21:00.803Z,32.70
2022-12-11T11:23:28.609Z,28.83
2022-12-11T11:25:58.964Z,32.95
2022-12-11T11:28:33.664Z,33.40
2022-12-11T11:31:18.930Z,35.90
2022-12-11T11:34:09.699Z,29.90
2022-12-11T11:36:43.382Z,31.40
2022-12-11T11:39:28.273Z,30.48
2022-12-11T11:42:01.195Z,36.25
2022-12-11T11:44:42.727Z,36.33
2022-12-11T11:47:32.581Z,35.80
2022-12-11T11:50:21.868Z,31.48
2022-12-11T11:52:54.929Z,31.42
2022-12-11T11:55:37.266Z,33.22
2022-12-11T11:58:36.645Z,35.45
2022-12-11T12:01:03.373Z,27.88
2022-12-11T12:03:30.618Z,27.73
2022-12-11T12:06:14.872Z,28.80
2022-12-11T12:09:22.594Z,31.45
2022-12-11T12:12:00.510Z,26.25
2022-12-11T12:14:52.425Z,25.67
2022-12-11T12:17:55.983Z,22.63
2022-12-11T12:20:34.045Z,18.52
2022-12-11T12:23:24.952Z,21.73
2022-12-11T12:26:10.046Z,17.83
2022-12-11T12:28:53.077Z,17.50
2022-12-11T12:31:41.357Z,17.30
2022-12-11T12:34:29.673Z,17.80
2022-12-11T12:37:02.032Z,18.73
2022-12-11T12:40:03.893Z,15.63
2022-12-11T12:42:56.727Z,35.78
2022-12-11T12:45:30.740Z,7.03
2022-12-11T12:48:03.630Z,7.78
2022-12-11T12:50:44.514Z,9.25
2022-12-11T12:53:18.617Z,6.00
2022-12-11T12:55:46.671Z,3.40
2022-12-11T12:58:40.608Z,2.28
2022-12-11T13:01:13.452Z,1.88
2022-12-11T13:04:20.873Z,3.83
2022-12-11T13:06:57.758Z,6.32
2022-12-11T13:09:38.599Z,3.22
2022-12-11T13:12:19.521Z,2.88
2022-12-11T13:15:00.372Z,1.25
2022-12-11T13:17:39.347Z,1.38
2022-12-11T13:20:22.199Z,2.38
2022-12-11T13:25:30.972Z,2.22
2022-12-11T13:28:28.769Z,3.20
2022-12-11T13:31:03.312Z,2.70
2022-12-11T13:33:30.872Z,4.32
2022-12-11T13:36:27.151Z,3.83
2022-12-11T13:39:02.040Z,4.18
2022-12-11T13:41:32.286Z,3.42
2022-12-11T13:44:04.003Z,4.22
2022-12-11T13:46:38.825Z,5.10
2022-12-11T13:49:08.920Z,2.85
2022-12-11T13:51:37.332Z,2.80
2022-12-11T13:54:16.697Z,1.90
2022-12-11T13:57:15.158Z,1.92
2022-12-11T13:59:55.971Z,2.92
2022-12-11T14:02:34.259Z,2.50
2022-12-11T14:05:06.583Z,2.75
2022-12-11T14:07:37.320Z,2.88
2022-12-11T14:10:30.345Z,3.03
2022-12-11T14:15:35.526Z,1.90
2022-12-11T14:18:15.074Z,1.90
2022-12-11T14:20:46.756Z,2.10
2022-12-11T14:23:23.736Z,3.55
2022-12-11T14:26:19.532Z,3.95
2022-12-11T14:28:54.768Z,5.13
2022-12-11T14:31:44.634Z,3.10
2022-12-11T14:34:21.225Z,4.78
2022-12-11T14:36:49.736Z,7.18
2022-12-11T14:39:34.600Z,10.60
2022-12-11T14:42:07.693Z,11.55
2022-12-11T14:44:58.104Z,9.25
2022-12-11T14:47:31.255Z,15.02
2022-12-11T14:50:07.167Z,6.65
2022-12-11T14:52:47.395Z,4.22
2022-12-11T14:55:27.850Z,4.13
2022-12-11T14:58:03.281Z,4.15
2022-12-11T15:00:33.409Z,4.53
2022-12-11T15:03:29.452Z,3.08
2022-12-11T15:05:58.078Z,3.33
2022-12-11T15:08:29.458Z,2.88
2022-12-11T15:11:21.720Z,2.50
2022-12-11T15:13:51.400Z,2.65
2022-12-11T15:16:27.020Z,2.28
2022-12-11T15:18:59.049Z,3.15
2022-12-11T15:21:34.523Z,4.97
2022-12-11T15:24:07.216Z,3.47
2022-12-11T15:26:41.595Z,3.25
2022-12-11T15:29:42.673Z,3.17
2022-12-11T15:32:09.443Z,3.92
2022-12-11T15:34:50.192Z,2.50
2022-12-11T15:37:23.707Z,3.22
2022-12-11T15:39:51.720Z,3.05
2022-12-11T15:42:40.725Z,2.28
2022-12-11T15:45:20.110Z,2.88
2022-12-11T15:47:48.882Z,3.30
2022-12-11T15:50:22.079Z,2.88
2022-12-11T15:55:23.513Z,4.25
2022-12-11T15:58:02.467Z,2.83
2022-12-11T16:00:34.799Z,3.45
2022-12-11T16:03:01.528Z,3.22
2022-12-11T16:05:35.678Z,2.67
2022-12-11T16:08:02.478Z,2.58
2022-12-11T16:10:32.518Z,3.03
2022-12-11T16:13:04.046Z,3.15
2022-12-11T16:15:31.235Z,3.38
2022-12-11T16:18:09.886Z,2.47
2022-12-11T16:20:41.210Z,3.08
2022-12-11T16:23:18.118Z,2.50
2022-12-11T16:25:46.327Z,3.08
2022-12-11T16:28:16.390Z,3.72
2022-12-11T16:30:46.161Z,3.42
2022-12-11T16:33:13.807Z,3.20
2022-12-11T16:35:42.194Z,3.38
2022-12-11T16:38:10.265Z,2.38
2022-12-11T16:40:39.673Z,3.03
2022-12-11T16:43:14.847Z,2.75
2022-12-11T16:45:47.862Z,3.13
2022-12-11T16:48:14.727Z,3.00
2022-12-11T16:50:56.183Z,3.03
2022-12-11T16:53:28.399Z,3.17
2022-12-11T16:55:55.300Z,3.45
2022-12-11T16:58:24.622Z,4.35
2022-12-11T17:03:26.811Z,3.00
2022-12-11T17:05:53.770Z,3.10
2022-12-11T17:08:23.106Z,2.97
2022-12-11T17:10:50.205Z,4.22
2022-12-11T17:13:17.403Z,3.20
2022-12-11T17:15:46.276Z,3.88
2022-12-11T17:18:13.912Z,3.58
2022-12-11T17:20:42.403Z,4.20
2022-12-11T17:23:10.864Z,2.63
2022-12-11T17:25:41.936Z,4.57
2022-12-11T17:28:14.019Z,3.00
2022-12-11T17:30:44.130Z,2.53
2022-12-11T17:33:12.636Z,3.13
2022-12-11T17:35:39.691Z,3.20
2022-12-11T17:38:06.637Z,3.33
2022-12-11T17:40:33.687Z,3.88
2022-12-11T17:43:00.788Z,3.53
2022-12-11T17:45:28.030Z,3.67
2022-12-11T17:47:54.807Z,3.40
2022-12-11T17:50:21.777Z,3.10
2022-12-11T17:52:49.111Z,3.40
2022-12-11T17:55:16.435Z,3.47
2022-12-11T17:57:43.815Z,4.45
2022-12-11T18:00:11.238Z,2.90
2022-12-11T18:02:38.371Z,4.40
2022-12-11T18:05:05.607Z,3.72
2022-12-11T18:07:36.547Z,5.00
2022-12-11T18:10:10.146Z,4.20
2022-12-11T18:12:37.779Z,3.78
2022-12-11T18:15:11.116Z,3.80
2022-12-11T18:17:44.700Z,4.15
2022-12-11T18:20:20.493Z,5.53
2022-12-11T18:22:55.667Z,4.25
2022-12-11T18:25:26.145Z,3.25
2022-12-11T18:27:57.003Z,3.33
2022-12-11T18:30:24.884Z,4.50
2022-12-11T18:32:55.407Z,6.85
2022-12-11T18:35:25.942Z,4.45
2022-12-11T18:38:00.307Z,3.33
2022-12-11T18:40:30.201Z,5.10
2022-12-11T18:42:58.924Z,3.90
2022-12-11T18:45:26.318Z,4.00
2022-12-11T18:47:59.353Z,4.55
2022-12-11T18:50:27.194Z,4.55
2022-12-11T18:53:00.485Z,4.20
2022-12-11T18:55:27.581Z,4.70
2022-12-11T18:57:57.410Z,4.93
2022-12-11T19:00:24.806Z,4.07
2022-12-11T19:02:54.043Z,4.53
2022-12-11T19:05:20.848Z,5.93
2022-12-11T19:07:47.788Z,5.28
2022-12-11T19:10:17.484Z,4.38
2022-12-11T19:12:44.352Z,4.50
2022-12-11T19:15:15.871Z,4.78
2022-12-11T19:17:48.089Z,3.80
2022-12-11T19:20:48.556Z,4.40
2022-12-11T19:23:07.944Z,4.68
2022-12-11T19:25:34.937Z,4.60
2022-12-11T19:28:02.088Z,7.22
2022-12-11T19:30:29.011Z,5.63
2022-12-11T19:33:01.424Z,6.22
2022-12-11T19:35:31.229Z,5.25
2022-12-11T19:38:02.385Z,4.75
2022-12-11T19:40:34.135Z,5.15
2022-12-11T19:43:07.224Z,5.20
2022-12-11T19:45:41.837Z,4.93
2022-12-11T19:48:11.553Z,4.45
2022-12-11T19:50:40.132Z,4.50
2022-12-11T19:53:09.377Z,4.43
2022-12-11T19:55:45.243Z,6.32
2022-12-11T19:58:13.445Z,4.30
2022-12-11T20:00:40.787Z,5.50
2022-12-11T20:03:10.985Z,6.10
2022-12-11T20:05:38.175Z,7.20
2022-12-11T20:08:42.873Z,5.85
2022-12-11T20:11:10.568Z,6.18
2022-12-11T20:13:41.409Z,6.22
2022-12-11T20:16:12.306Z,6.60
2022-12-11T20:18:40.580Z,6.45
2022-12-11T20:21:12.004Z,6.55
2022-12-11T20:23:45.256Z,5.88
2022-12-11T20:26:18.160Z,7.18
2022-12-11T20:28:53.507Z,6.32
2022-12-11T20:31:27.866Z,5.53
2022-12-11T20:34:01.801Z,6.32
2022-12-11T20:36:28.953Z,6.35
2022-12-11T20:38:59.752Z,7.28
2022-12-11T20:41:33.333Z,7.03
2022-12-11T20:44:02.016Z,6.63
2022-12-11T20:46:30.308Z,7.25
2022-12-11T20:49:01.710Z,7.03
2022-12-11T20:51:29.658Z,8.25
2022-12-11T20:53:59.815Z,7.35
2022-12-11T20:56:29.353Z,6.95
2022-12-11T20:59:00.007Z,8.18
2022-12-11T21:01:39.528Z,7.90
2022-12-11T21:04:06.458Z,8.00
2022-12-11T21:06:36.719Z,8.98
2022-12-11T21:09:13.642Z,9.38
2022-12-11T21:11:41.129Z,9.82
2022-12-11T21:14:09.480Z,10.48
2022-12-11T21:16:40.628Z,7.88
2022-12-11T21:19:10.215Z,8.90
2022-12-11T21:21:40.728Z,8.55
2022-12-11T21:24:20.226Z,8.68
2022-12-11T21:26:48.388Z,9.90
2022-12-11T21:29:18.406Z,9.02
2022-12-11T21:31:45.297Z,9.20
2022-12-11T21:34:14.205Z,9.02
2022-12-11T21:36:56.887Z,9.63
2022-12-11T21:39:28.129Z,8.95
2022-12-11T21:41:55.372Z,9.68
2022-12-11T21:47:15.263Z,9.48
2022-12-11T21:49:42.198Z,10.02
2022-12-11T21:52:10.647Z,9.38
2022-12-11T21:54:37.615Z,10.05
2022-12-11T21:57:08.203Z,10.73
2022-12-11T21:59:35.171Z,10.13
2022-12-11T22:02:08.106Z,10.80
2022-12-11T22:04:34.982Z,11.25
2022-12-11T22:07:04.384Z,10.02
2022-12-11T22:09:31.144Z,10.43
2022-12-11T22:12:01.425Z,10.85
2022-12-11T22:14:31.478Z,11.48
2022-12-11T22:16:58.990Z,11.13
2022-12-11T22:19:32.517Z,11.13
2022-12-11T22:22:02.797Z,12.45
2022-12-11T22:24:29.602Z,12.02
2022-12-11T22:27:04.550Z,11.05
2022-12-11T22:29:35.829Z,11.05
2022-12-11T22:32:05.719Z,11.52
2022-12-11T22:34:32.591Z,12.65
2022-12-11T22:37:00.583Z,11.90
2022-12-11T22:39:27.610Z,11.40
2022-12-11T22:41:55.058Z,12.43
2022-12-11T22:44:22.239Z,11.55
2022-12-11T22:46:52.257Z,12.65
2022-12-11T22:49:20.927Z,14.15
2022-12-11T22:51:50.411Z,13.30
2022-12-11T22:54:21.086Z,11.23
2022-12-11T22:56:47.912Z,10.07
2022-12-11T22:59:19.797Z,9.63
2022-12-11T23:01:53.081Z,10.57
2022-12-11T23:04:22.793Z,10.75
2022-12-11T23:06:52.971Z,11.43
2022-12-11T23:09:21.187Z,10.32
2022-12-11T23:11:48.508Z,10.43
2022-12-11T23:14:23.389Z,10.23
2022-12-11T23:16:53.367Z,9.25
2022-12-11T23:19:29.344Z,10.57
2022-12-11T23:22:01.951Z,10.93
2022-12-11T23:26:58.215Z,11.38
2022-12-11T23:29:34.701Z,11.25
2022-12-11T23:32:01.922Z,12.85
2022-12-11T23:34:28.837Z,10.60
2022-12-11T23:36:59.219Z,11.82
2022-12-11T23:39:26.510Z,11.90
2022-12-11T23:41:53.588Z,12.48
2022-12-11T23:44:20.520Z,11.25
2022-12-11T23:46:50.414Z,9.73
2022-12-11T23:49:21.143Z,9.95
2022-12-11T23:51:47.940Z,12.13
2022-12-11T23:54:14.723Z,13.35
2022-12-11T23:56:41.585Z,12.45
2022-12-11T23:59:12.591Z,11.93
